createdAt,value
2023-03-29T00:00:24.000Z,2.37
2023-03-29T00:01:24.000Z,2.33
2023-03-29T00:02:24.000Z,2.30
2023-03-29T00:03:24.000Z,2.33
2023-03-29T00:04:24.000Z,2.33
2023-03-29T00:05:24.000Z,2.31
2023-03-29T00:06:24.000Z,2.31
2023-03-29T00:07:24.000Z,2.30
2023-03-29T00:08:24.000Z,2.28
2023-03-29T00:09:24.000Z,2.30
2023-03-29T00:10:24.000Z,2.33
2023-03-29T00:11:24.000Z,2.34
2023-03-29T00:12:24.000Z,2.33
2023-03-29T00:13:25.000Z,2.33
2023-03-29T00:14:25.000Z,2.37
2023-03-29T00:15:25.000Z,2.35
2023-03-29T00:16:25.000Z,2.34
2023-03-29T00:17:25.000Z,2.38
2023-03-29T00:18:25.000Z,2.37
2023-03-29T00:19:25.000Z,2.35
2023-03-29T00:20:25.000Z,2.35
2023-03-29T00:21:25.000Z,2.40
2023-03-29T00:22:25.000Z,2.41
2023-03-29T00:23:25.000Z,2.40
2023-03-29T00:24:25.000Z,2.41
2023-03-29T00:25:25.000Z,2.45
2023-03-29T00:26:25.000Z,2.44
2023-03-29T00:27:26.000Z,2.45
2023-03-29T00:28:26.000Z,2.45
2023-03-29T00:29:26.000Z,2.46
2023-03-29T00:30:26.000Z,2.45
2023-03-29T00:31:26.000Z,2.44
2023-03-29T00:32:26.000Z,2.46
2023-03-29T00:33:26.000Z,2.46
2023-03-29T00:34:26.000Z,2.48
2023-03-29T00:35:26.000Z,2.51
2023-03-29T00:36:26.000Z,2.48
2023-03-29T00:37:26.000Z,2.45
2023-03-29T00:38:26.000Z,2.45
2023-03-29T00:39:26.000Z,2.46
2023-03-29T00:40:26.000Z,2.41
2023-03-29T00:41:26.000Z,2.46
2023-03-29T00:42:26.000Z,2.44
2023-03-29T00:43:27.000Z,2.41
2023-03-29T00:44:27.000Z,2.41
2023-03-29T00:45:27.000Z,2.44
2023-03-29T00:46:27.000Z,2.41
2023-03-29T00:47:27.000Z,2.46
2023-03-29T00:48:27.000Z,2.44
2023-03-29T00:49:27.000Z,2.41
2023-03-29T00:50:27.000Z,2.45
2023-03-29T00:51:27.000Z,2.45
2023-03-29T00:52:27.000Z,2.45
2023-03-29T00:53:27.000Z,2.46
2023-03-29T00:54:27.000Z,2.45
2023-03-29T00:55:27.000Z,2.49
2023-03-29T00:56:27.000Z,2.45
2023-03-29T00:57:27.000Z,2.48
2023-03-29T00:58:27.000Z,2.51
2023-03-29T00:59:28.000Z,2.49
2023-03-29T01:00:28.000Z,2.51
2023-03-29T01:01:28.000Z,2.51
2023-03-29T01:02:28.000Z,2.51
2023-03-29T01:03:28.000Z,2.52
2023-03-29T01:04:28.000Z,2.51
2023-03-29T01:05:28.000Z,2.51
2023-03-29T01:06:28.000Z,2.48
2023-03-29T01:07:28.000Z,2.52
2023-03-29T01:08:28.000Z,2.52
2023-03-29T01:09:28.000Z,2.52
2023-03-29T01:10:28.000Z,2.55
2023-03-29T01:11:28.000Z,2.53
2023-03-29T01:12:28.000Z,2.55
2023-03-29T01:13:28.000Z,2.51
2023-03-29T01:14:28.000Z,2.53
2023-03-29T01:15:28.000Z,2.55
2023-03-29T01:16:29.000Z,2.53
2023-03-29T01:17:29.000Z,2.59
2023-03-29T01:18:29.000Z,2.55
2023-03-29T01:19:29.000Z,2.53
2023-03-29T01:20:29.000Z,2.56
2023-03-29T01:21:29.000Z,2.58
2023-03-29T01:22:29.000Z,2.59
2023-03-29T01:23:29.000Z,2.59
2023-03-29T01:24:29.000Z,2.58
2023-03-29T01:25:29.000Z,2.58
2023-03-29T01:26:29.000Z,2.59
2023-03-29T01:27:29.000Z,2.61
2023-03-29T01:28:29.000Z,2.63
2023-03-29T01:29:29.000Z,2.59
2023-03-29T01:30:29.000Z,2.63
2023-03-29T01:31:29.000Z,2.64
2023-03-29T01:32:30.000Z,2.61
2023-03-29T01:33:30.000Z,2.61
2023-03-29T01:34:30.000Z,2.64
2023-03-29T01:35:30.000Z,2.61
2023-03-29T01:36:30.000Z,2.63
2023-03-29T01:37:30.000Z,2.55
2023-03-29T01:38:30.000Z,2.58
2023-03-29T01:39:30.000Z,2.59
2023-03-29T01:40:30.000Z,2.58
2023-03-29T01:41:30.000Z,2.58
2023-03-29T01:42:30.000Z,2.61
2023-03-29T01:43:30.000Z,2.61
2023-03-29T01:44:30.000Z,2.59
2023-03-29T01:45:30.000Z,2.63
2023-03-29T01:46:30.000Z,2.64
2023-03-29T01:47:30.000Z,2.67
2023-03-29T01:48:30.000Z,2.64
2023-03-29T01:49:30.000Z,2.67
2023-03-29T01:50:31.000Z,2.67
2023-03-29T01:51:31.000Z,2.67
2023-03-29T01:52:31.000Z,2.70
2023-03-29T01:53:31.000Z,2.69
2023-03-29T01:54:31.000Z,2.73
2023-03-29T01:55:31.000Z,2.74
2023-03-29T01:56:31.000Z,2.77
2023-03-29T01:57:31.000Z,2.77
2023-03-29T01:58:31.000Z,2.74
2023-03-29T01:59:31.000Z,2.77
2023-03-29T02:00:31.000Z,2.76
2023-03-29T02:01:31.000Z,2.74
2023-03-29T02:02:31.000Z,2.76
2023-03-29T02:03:31.000Z,2.71
2023-03-29T02:04:31.000Z,2.74
2023-03-29T02:05:31.000Z,2.77
2023-03-29T02:06:32.000Z,2.82
2023-03-29T02:07:32.000Z,2.84
2023-03-29T02:08:32.000Z,2.85
2023-03-29T02:09:32.000Z,2.87
2023-03-29T02:10:32.000Z,2.87
2023-03-29T02:11:32.000Z,2.88
2023-03-29T02:12:32.000Z,2.89
2023-03-29T02:13:32.000Z,2.89
2023-03-29T02:14:32.000Z,2.94
2023-03-29T02:15:32.000Z,2.95
2023-03-29T02:16:32.000Z,2.97
2023-03-29T02:17:32.000Z,2.94
2023-03-29T02:18:32.000Z,2.95
2023-03-29T02:19:32.000Z,2.95
2023-03-29T02:20:32.000Z,3.02
2023-03-29T02:21:32.000Z,3.05
2023-03-29T02:22:32.000Z,3.03
2023-03-29T02:23:33.000Z,3.03
2023-03-29T02:24:33.000Z,3.06
2023-03-29T02:25:33.000Z,3.03
2023-03-29T02:26:33.000Z,3.03
2023-03-29T02:27:33.000Z,3.03
2023-03-29T02:28:33.000Z,3.03
2023-03-29T02:29:33.000Z,3.05
2023-03-29T02:30:33.000Z,3.03
2023-03-29T02:31:33.000Z,3.02
2023-03-29T02:32:33.000Z,3.00
2023-03-29T02:33:33.000Z,3.03
2023-03-29T02:34:33.000Z,2.98
2023-03-29T02:35:33.000Z,2.98
2023-03-29T02:36:33.000Z,3.02
2023-03-29T02:37:33.000Z,2.95
2023-03-29T02:38:33.000Z,2.98
2023-03-29T02:39:33.000Z,3.00
2023-03-29T02:40:34.000Z,2.94
2023-03-29T02:41:34.000Z,2.94
2023-03-29T02:42:34.000Z,2.92
2023-03-29T02:43:34.000Z,2.92
2023-03-29T02:44:34.000Z,2.91
2023-03-29T02:45:34.000Z,2.94
2023-03-29T02:46:34.000Z,2.94
2023-03-29T02:47:34.000Z,2.92
2023-03-29T02:48:34.000Z,2.94
2023-03-29T02:49:34.000Z,2.92
2023-03-29T02:50:34.000Z,2.89
2023-03-29T02:51:34.000Z,2.94
2023-03-29T02:52:34.000Z,2.91
2023-03-29T02:53:34.000Z,2.92
2023-03-29T02:54:34.000Z,2.92
2023-03-29T02:55:34.000Z,2.94
2023-03-29T02:56:34.000Z,2.95
2023-03-29T02:57:35.000Z,2.89
2023-03-29T02:58:35.000Z,2.91
2023-03-29T02:59:35.000Z,2.92
2023-03-29T03:00:35.000Z,2.91
2023-03-29T03:01:35.000Z,2.91
2023-03-29T03:02:35.000Z,2.92
2023-03-29T03:03:35.000Z,2.91
2023-03-29T03:04:35.000Z,2.91
2023-03-29T03:05:35.000Z,2.89
2023-03-29T03:06:35.000Z,2.89
2023-03-29T03:07:35.000Z,2.91
2023-03-29T03:08:35.000Z,2.87
2023-03-29T03:09:35.000Z,2.88
2023-03-29T03:10:35.000Z,2.87
2023-03-29T03:11:35.000Z,2.85
2023-03-29T03:12:35.000Z,2.85
2023-03-29T03:13:35.000Z,2.82
2023-03-29T03:14:35.000Z,2.87
2023-03-29T03:15:36.000Z,2.84
2023-03-29T03:16:36.000Z,2.87
2023-03-29T03:17:36.000Z,2.84
2023-03-29T03:18:36.000Z,2.87
2023-03-29T03:19:36.000Z,2.89
2023-03-29T03:20:36.000Z,2.89
2023-03-29T03:21:36.000Z,2.89
2023-03-29T03:22:36.000Z,2.88
2023-03-29T03:23:36.000Z,2.85
2023-03-29T03:24:36.000Z,2.89
2023-03-29T03:25:36.000Z,2.88
2023-03-29T03:26:36.000Z,2.89
2023-03-29T03:27:36.000Z,2.88
2023-03-29T03:28:36.000Z,2.88
2023-03-29T03:29:36.000Z,2.87
2023-03-29T03:30:36.000Z,2.89
2023-03-29T03:31:36.000Z,2.88
2023-03-29T03:32:36.000Z,2.95
2023-03-29T03:33:36.000Z,3.00
2023-03-29T03:34:36.000Z,3.00
2023-03-29T03:35:37.000Z,3.05
2023-03-29T03:36:37.000Z,3.05
2023-03-29T03:37:37.000Z,3.09
2023-03-29T03:38:37.000Z,3.13
2023-03-29T03:39:37.000Z,3.15
2023-03-29T03:40:37.000Z,3.21
2023-03-29T03:41:37.000Z,3.23
2023-03-29T03:42:37.000Z,3.27
2023-03-29T03:43:37.000Z,3.25
2023-03-29T03:44:37.000Z,3.25
2023-03-29T03:45:37.000Z,3.27
2023-03-29T03:46:37.000Z,3.28
2023-03-29T03:47:37.000Z,3.28
2023-03-29T03:48:37.000Z,3.30
2023-03-29T03:49:37.000Z,3.33
2023-03-29T03:50:37.000Z,3.39
2023-03-29T03:51:37.000Z,3.34
2023-03-29T03:52:37.000Z,3.36
2023-03-29T03:53:37.000Z,3.43
2023-03-29T03:54:37.000Z,3.42
2023-03-29T03:55:37.000Z,3.47
2023-03-29T03:56:38.000Z,3.50
2023-03-29T03:57:38.000Z,3.54
2023-03-29T03:58:38.000Z,3.60
2023-03-29T03:59:38.000Z,3.60
2023-03-29T04:00:38.000Z,3.61
2023-03-29T04:01:38.000Z,3.62
2023-03-29T04:02:38.000Z,3.65
2023-03-29T04:03:38.000Z,3.67
2023-03-29T04:04:38.000Z,3.68
2023-03-29T04:05:38.000Z,3.72
2023-03-29T04:06:38.000Z,3.67
2023-03-29T04:07:38.000Z,3.72
2023-03-29T04:08:38.000Z,3.72
2023-03-29T04:09:38.000Z,3.71
2023-03-29T04:10:38.000Z,3.78
2023-03-29T04:11:38.000Z,3.78
2023-03-29T04:12:38.000Z,3.79
2023-03-29T04:13:38.000Z,3.80
2023-03-29T04:14:38.000Z,3.79
2023-03-29T04:15:39.000Z,3.82
2023-03-29T04:16:39.000Z,3.82
2023-03-29T04:17:39.000Z,3.79
2023-03-29T04:18:39.000Z,3.79
2023-03-29T04:19:39.000Z,3.82
2023-03-29T04:20:39.000Z,3.83
2023-03-29T04:21:39.000Z,3.88
2023-03-29T04:22:39.000Z,3.88
2023-03-29T04:23:39.000Z,3.88
2023-03-29T04:24:39.000Z,3.89
2023-03-29T04:25:39.000Z,3.88
2023-03-29T04:26:39.000Z,3.88
2023-03-29T04:27:39.000Z,3.89
2023-03-29T04:28:39.000Z,3.89
2023-03-29T04:29:39.000Z,3.89
2023-03-29T04:30:39.000Z,3.92
2023-03-29T04:31:39.000Z,3.92
2023-03-29T04:32:39.000Z,3.90
2023-03-29T04:33:39.000Z,3.92
2023-03-29T04:34:39.000Z,3.96
2023-03-29T04:35:39.000Z,3.96
2023-03-29T04:36:40.000Z,4.00
2023-03-29T04:37:40.000Z,4.00
2023-03-29T04:38:40.000Z,3.97
2023-03-29T04:39:40.000Z,3.98
2023-03-29T04:40:40.000Z,4.01
2023-03-29T04:41:40.000Z,4.00
2023-03-29T04:42:40.000Z,4.03
2023-03-29T04:43:40.000Z,4.00
2023-03-29T04:44:40.000Z,4.00
2023-03-29T04:45:40.000Z,3.98
2023-03-29T04:46:40.000Z,4.01
2023-03-29T04:47:40.000Z,4.06
2023-03-29T04:48:40.000Z,4.03
2023-03-29T04:49:40.000Z,4.06
2023-03-29T04:50:40.000Z,4.06
2023-03-29T04:51:40.000Z,4.06
2023-03-29T04:52:40.000Z,4.04
2023-03-29T04:53:40.000Z,4.03
2023-03-29T04:54:40.000Z,4.07
2023-03-29T04:55:41.000Z,4.06
2023-03-29T04:56:41.000Z,4.04
2023-03-29T04:57:41.000Z,4.04
2023-03-29T04:58:41.000Z,4.07
2023-03-29T04:59:41.000Z,4.07
2023-03-29T05:00:41.000Z,4.07
2023-03-29T05:01:41.000Z,4.07
2023-03-29T05:02:41.000Z,4.08
2023-03-29T05:03:41.000Z,4.10
2023-03-29T05:04:41.000Z,4.08
2023-03-29T05:05:41.000Z,4.10
2023-03-29T05:06:41.000Z,4.10
2023-03-29T05:07:41.000Z,4.14
2023-03-29T05:08:41.000Z,4.14
2023-03-29T05:09:41.000Z,4.14
2023-03-29T05:10:41.000Z,4.16
2023-03-29T05:11:41.000Z,4.14
2023-03-29T05:12:41.000Z,4.12
2023-03-29T05:13:41.000Z,4.14
2023-03-29T05:14:41.000Z,4.14
2023-03-29T05:15:41.000Z,4.12
2023-03-29T05:16:42.000Z,4.15
2023-03-29T05:17:42.000Z,4.12
2023-03-29T05:18:42.000Z,4.19
2023-03-29T05:19:42.000Z,4.16
2023-03-29T05:20:42.000Z,4.16
2023-03-29T05:21:42.000Z,4.19
2023-03-29T05:22:42.000Z,4.22
2023-03-29T05:23:42.000Z,4.24
2023-03-29T05:24:42.000Z,4.21
2023-03-29T05:25:42.000Z,4.22
2023-03-29T05:26:42.000Z,4.24
2023-03-29T05:27:42.000Z,4.25
2023-03-29T05:28:42.000Z,4.26
2023-03-29T05:29:42.000Z,4.25
2023-03-29T05:30:42.000Z,4.26
2023-03-29T05:31:42.000Z,4.29
2023-03-29T05:32:42.000Z,4.26
2023-03-29T05:33:42.000Z,4.29
2023-03-29T05:34:42.000Z,4.32
2023-03-29T05:35:42.000Z,4.33
2023-03-29T05:36:42.000Z,4.32
2023-03-29T05:37:42.000Z,4.32
2023-03-29T05:38:43.000Z,4.33
2023-03-29T05:39:43.000Z,4.34
2023-03-29T05:40:43.000Z,4.37
2023-03-29T05:41:43.000Z,4.36
2023-03-29T05:42:43.000Z,4.34
2023-03-29T05:43:43.000Z,4.34
2023-03-29T05:44:43.000Z,4.36
2023-03-29T05:45:43.000Z,4.39
2023-03-29T05:46:43.000Z,4.37
2023-03-29T05:47:43.000Z,4.39
2023-03-29T05:48:43.000Z,4.37
2023-03-29T05:49:43.000Z,4.40
2023-03-29T05:50:43.000Z,4.40
2023-03-29T05:51:43.000Z,4.42
2023-03-29T05:52:43.000Z,4.42
2023-03-29T05:53:43.000Z,4.39
2023-03-29T05:54:43.000Z,4.42
2023-03-29T05:55:43.000Z,4.43
2023-03-29T05:56:43.000Z,4.46
2023-03-29T05:57:43.000Z,4.44
2023-03-29T05:58:43.000Z,4.44
2023-03-29T05:59:43.000Z,4.46
2023-03-29T06:00:43.000Z,4.50
2023-03-29T06:01:43.000Z,4.51
2023-03-29T06:02:44.000Z,4.54
2023-03-29T06:03:44.000Z,4.52
2023-03-29T06:04:44.000Z,4.54
2023-03-29T06:05:44.000Z,4.57
2023-03-29T06:06:44.000Z,4.54
2023-03-29T06:07:44.000Z,4.58
2023-03-29T06:08:44.000Z,4.64
2023-03-29T06:09:44.000Z,4.61
2023-03-29T06:10:44.000Z,4.62
2023-03-29T06:11:44.000Z,4.67
2023-03-29T06:12:44.000Z,4.64
2023-03-29T06:13:44.000Z,4.65
2023-03-29T06:14:44.000Z,4.65
2023-03-29T06:15:44.000Z,4.64
2023-03-29T06:16:44.000Z,4.64
2023-03-29T06:17:44.000Z,4.69
2023-03-29T06:18:44.000Z,4.65
2023-03-29T06:19:44.000Z,4.67
2023-03-29T06:20:44.000Z,4.67
2023-03-29T06:21:44.000Z,4.67
2023-03-29T06:22:44.000Z,4.65
2023-03-29T06:23:44.000Z,4.65
2023-03-29T06:24:44.000Z,4.65
2023-03-29T06:25:44.000Z,4.69
2023-03-29T06:26:44.000Z,4.64
2023-03-29T06:27:44.000Z,4.67
2023-03-29T06:28:45.000Z,4.65
2023-03-29T06:29:45.000Z,4.65
2023-03-29T06:30:45.000Z,4.70
2023-03-29T06:31:45.000Z,4.72
2023-03-29T06:32:45.000Z,4.75
2023-03-29T06:33:45.000Z,4.77
2023-03-29T06:34:45.000Z,4.79
2023-03-29T06:35:45.000Z,4.83
2023-03-29T06:36:45.000Z,4.80
2023-03-29T06:37:45.000Z,4.88
2023-03-29T06:38:45.000Z,4.89
2023-03-29T06:39:45.000Z,4.92
2023-03-29T06:40:45.000Z,4.96
2023-03-29T06:41:45.000Z,4.94
2023-03-29T06:42:45.000Z,4.95
2023-03-29T06:43:45.000Z,4.98
2023-03-29T06:44:45.000Z,4.98
2023-03-29T06:45:45.000Z,4.96
2023-03-29T06:46:45.000Z,5.01
2023-03-29T06:47:45.000Z,5.01
2023-03-29T06:48:45.000Z,5.04
2023-03-29T06:49:45.000Z,5.02
2023-03-29T06:50:45.000Z,5.01
2023-03-29T06:51:45.000Z,5.02
2023-03-29T06:52:45.000Z,5.04
2023-03-29T06:53:45.000Z,5.07
2023-03-29T06:54:45.000Z,5.09
2023-03-29T06:55:46.000Z,5.09
2023-03-29T06:56:46.000Z,5.10
2023-03-29T06:57:46.000Z,5.09
2023-03-29T06:58:46.000Z,5.13
2023-03-29T06:59:46.000Z,5.16
2023-03-29T07:00:46.000Z,5.13
2023-03-29T07:01:46.000Z,5.17
2023-03-29T07:02:46.000Z,5.19
2023-03-29T07:03:46.000Z,5.19
2023-03-29T07:04:46.000Z,5.22
2023-03-29T07:05:46.000Z,5.22
2023-03-29T07:06:46.000Z,5.27
2023-03-29T07:07:46.000Z,5.25
2023-03-29T07:08:46.000Z,5.28
2023-03-29T07:09:46.000Z,5.22
2023-03-29T07:10:46.000Z,5.31
2023-03-29T07:11:46.000Z,5.30
2023-03-29T07:12:46.000Z,5.31
2023-03-29T07:13:46.000Z,5.32
2023-03-29T07:14:46.000Z,5.34
2023-03-29T07:15:46.000Z,5.38
2023-03-29T07:16:46.000Z,5.38
2023-03-29T07:17:46.000Z,5.32
2023-03-29T07:18:46.000Z,5.35
2023-03-29T07:19:46.000Z,5.41
2023-03-29T07:20:46.000Z,5.43
2023-03-29T07:21:46.000Z,5.43
2023-03-29T07:22:46.000Z,5.45
2023-03-29T07:23:46.000Z,5.46
2023-03-29T07:24:46.000Z,5.41
2023-03-29T07:25:47.000Z,5.43
2023-03-29T07:26:47.000Z,5.45
2023-03-29T07:27:47.000Z,5.45
2023-03-29T07:28:47.000Z,5.46
2023-03-29T07:29:47.000Z,5.53
2023-03-29T07:30:47.000Z,5.53
2023-03-29T07:31:47.000Z,5.60
2023-03-29T07:32:47.000Z,5.59
2023-03-29T07:33:47.000Z,5.68
2023-03-29T07:34:47.000Z,5.67
2023-03-29T07:35:47.000Z,5.67
2023-03-29T07:36:47.000Z,5.60
2023-03-29T07:37:47.000Z,5.60
2023-03-29T07:38:47.000Z,5.60
2023-03-29T07:39:47.000Z,5.63
2023-03-29T07:40:47.000Z,5.67
2023-03-29T07:41:47.000Z,5.64
2023-03-29T07:42:47.000Z,5.73
2023-03-29T07:43:47.000Z,5.75
2023-03-29T07:44:47.000Z,5.70
2023-03-29T07:45:47.000Z,5.70
2023-03-29T07:46:47.000Z,5.73
2023-03-29T07:47:47.000Z,5.77
2023-03-29T07:48:47.000Z,5.78
2023-03-29T07:49:47.000Z,5.81
2023-03-29T07:50:47.000Z,5.85
2023-03-29T07:51:47.000Z,5.85
2023-03-29T07:52:47.000Z,5.88
2023-03-29T07:53:47.000Z,5.91
2023-03-29T07:54:47.000Z,5.92
2023-03-29T07:55:47.000Z,5.93
2023-03-29T07:56:47.000Z,6.00
2023-03-29T07:57:47.000Z,6.00
2023-03-29T07:58:47.000Z,6.01
2023-03-29T07:59:47.000Z,6.01
2023-03-29T08:00:48.000Z,6.07
2023-03-29T08:01:48.000Z,6.09
2023-03-29T08:02:48.000Z,6.09
2023-03-29T08:03:48.000Z,6.09
2023-03-29T08:04:48.000Z,6.07
2023-03-29T08:05:48.000Z,6.10
2023-03-29T08:06:48.000Z,6.14
2023-03-29T08:07:48.000Z,6.13
2023-03-29T08:08:48.000Z,6.16
2023-03-29T08:09:48.000Z,6.14
2023-03-29T08:10:48.000Z,6.16
2023-03-29T08:11:48.000Z,6.19
2023-03-29T08:12:48.000Z,6.22
2023-03-29T08:13:48.000Z,6.21
2023-03-29T08:14:48.000Z,6.22
2023-03-29T08:15:48.000Z,6.22
2023-03-29T08:16:48.000Z,6.22
2023-03-29T08:17:48.000Z,6.30
2023-03-29T08:18:48.000Z,6.26
2023-03-29T08:19:48.000Z,6.33
2023-03-29T08:20:48.000Z,6.33
2023-03-29T08:21:48.000Z,6.38
2023-03-29T08:22:48.000Z,6.38
2023-03-29T08:23:48.000Z,6.46
2023-03-29T08:24:48.000Z,6.47
2023-03-29T08:25:48.000Z,6.50
2023-03-29T08:26:48.000Z,6.53
2023-03-29T08:27:48.000Z,6.54
2023-03-29T08:28:48.000Z,6.54
2023-03-29T08:29:48.000Z,6.61
2023-03-29T08:30:48.000Z,6.58
2023-03-29T08:31:48.000Z,6.68
2023-03-29T08:32:48.000Z,6.62
2023-03-29T08:33:48.000Z,6.71
2023-03-29T08:34:48.000Z,6.68
2023-03-29T08:35:48.000Z,6.65
2023-03-29T08:36:48.000Z,6.69
2023-03-29T08:37:48.000Z,6.71
2023-03-29T08:38:48.000Z,6.73
2023-03-29T08:39:48.000Z,6.81
2023-03-29T08:40:48.000Z,6.87
2023-03-29T08:41:48.000Z,6.89
2023-03-29T08:42:48.000Z,7.04
2023-03-29T08:43:48.000Z,7.02
2023-03-29T08:44:48.000Z,7.05
2023-03-29T08:45:48.000Z,7.05
2023-03-29T08:46:48.000Z,7.01
2023-03-29T08:47:49.000Z,7.05
2023-03-29T08:48:49.000Z,7.09
2023-03-29T08:49:49.000Z,7.07
2023-03-29T08:50:49.000Z,7.02
2023-03-29T08:51:49.000Z,7.05
2023-03-29T08:52:49.000Z,7.05
2023-03-29T08:53:49.000Z,7.05
2023-03-29T08:54:49.000Z,7.09
2023-03-29T08:55:49.000Z,7.12
2023-03-29T08:56:49.000Z,7.16
2023-03-29T08:57:49.000Z,7.08
2023-03-29T08:58:49.000Z,7.09
2023-03-29T08:59:49.000Z,7.08
2023-03-29T09:00:49.000Z,7.08
2023-03-29T09:01:49.000Z,7.19
2023-03-29T09:02:49.000Z,7.24
2023-03-29T09:03:49.000Z,7.29
2023-03-29T09:04:49.000Z,7.27
2023-03-29T09:05:49.000Z,7.34
2023-03-29T09:06:49.000Z,7.31
2023-03-29T09:07:49.000Z,7.37
2023-03-29T09:08:49.000Z,7.35
2023-03-29T09:09:49.000Z,7.35
2023-03-29T09:10:49.000Z,7.35
2023-03-29T09:11:49.000Z,7.38
2023-03-29T09:12:49.000Z,7.42
2023-03-29T09:13:49.000Z,7.42
2023-03-29T09:14:49.000Z,7.49
2023-03-29T09:15:49.000Z,7.52
2023-03-29T09:16:49.000Z,7.55
2023-03-29T09:17:49.000Z,7.58
2023-03-29T09:18:49.000Z,7.56
2023-03-29T09:19:49.000Z,7.56
2023-03-29T09:20:49.000Z,7.60
2023-03-29T09:21:49.000Z,7.63
2023-03-29T09:22:49.000Z,7.58
2023-03-29T09:23:49.000Z,7.59
2023-03-29T09:24:49.000Z,7.62
2023-03-29T09:25:49.000Z,7.60
2023-03-29T09:26:49.000Z,7.55
2023-03-29T09:27:49.000Z,7.53
2023-03-29T09:28:49.000Z,7.55
2023-03-29T09:29:49.000Z,7.55
2023-03-29T09:30:49.000Z,7.53
2023-03-29T09:31:49.000Z,7.52
2023-03-29T09:32:49.000Z,7.58
2023-03-29T09:33:49.000Z,7.59
2023-03-29T09:34:49.000Z,7.66
2023-03-29T09:35:49.000Z,7.62
2023-03-29T09:36:49.000Z,7.72
2023-03-29T09:37:49.000Z,7.81
2023-03-29T09:38:49.000Z,7.75
2023-03-29T09:39:49.000Z,7.77
2023-03-29T09:40:49.000Z,7.79
2023-03-29T09:41:49.000Z,7.82
2023-03-29T09:42:49.000Z,7.82
2023-03-29T09:43:49.000Z,7.84
2023-03-29T09:44:49.000Z,7.89
2023-03-29T09:45:49.000Z,7.96
2023-03-29T09:46:49.000Z,7.99
2023-03-29T09:47:49.000Z,8.08
2023-03-29T09:48:49.000Z,8.12
2023-03-29T09:49:49.000Z,8.15
2023-03-29T09:50:49.000Z,8.21
2023-03-29T09:51:49.000Z,8.33
2023-03-29T09:52:49.000Z,8.33
2023-03-29T09:53:49.000Z,8.40
2023-03-29T09:54:49.000Z,8.39
2023-03-29T09:55:49.000Z,8.40
2023-03-29T09:56:49.000Z,8.45
2023-03-29T09:57:49.000Z,8.51
2023-03-29T09:58:49.000Z,8.58
2023-03-29T09:59:49.000Z,8.65
2023-03-29T10:00:49.000Z,8.62
2023-03-29T10:01:49.000Z,8.69
2023-03-29T10:02:49.000Z,8.71
2023-03-29T10:03:49.000Z,8.76
2023-03-29T10:04:49.000Z,8.83
2023-03-29T10:05:49.000Z,8.88
2023-03-29T10:06:49.000Z,8.96
2023-03-29T10:07:49.000Z,9.05
2023-03-29T10:08:49.000Z,9.06
2023-03-29T10:09:49.000Z,9.15
2023-03-29T10:10:49.000Z,9.13
2023-03-29T10:11:49.000Z,9.20
2023-03-29T10:12:49.000Z,9.27
2023-03-29T10:13:49.000Z,9.38
2023-03-29T10:14:49.000Z,9.49
2023-03-29T10:15:49.000Z,9.58
2023-03-29T10:16:49.000Z,9.61
2023-03-29T10:17:49.000Z,9.64
2023-03-29T10:18:49.000Z,9.68
2023-03-29T10:19:49.000Z,9.73
2023-03-29T10:20:49.000Z,9.79
2023-03-29T10:21:49.000Z,9.82
2023-03-29T10:22:49.000Z,9.88
2023-03-29T10:23:49.000Z,9.85
2023-03-29T10:24:49.000Z,9.94
2023-03-29T10:25:49.000Z,9.99
2023-03-29T10:26:49.000Z,10.03
2023-03-29T10:27:49.000Z,10.06
2023-03-29T10:28:49.000Z,10.00
2023-03-29T10:29:49.000Z,10.03
2023-03-29T10:30:49.000Z,10.14
2023-03-29T10:31:49.000Z,10.06
2023-03-29T10:32:49.000Z,10.06
2023-03-29T10:33:49.000Z,10.03
2023-03-29T10:34:49.000Z,10.07
2023-03-29T10:35:49.000Z,10.12
2023-03-29T10:36:49.000Z,10.14
2023-03-29T10:37:49.000Z,10.15
2023-03-29T10:38:49.000Z,10.14
2023-03-29T10:39:49.000Z,10.07
2023-03-29T10:40:49.000Z,10.12
2023-03-29T10:41:49.000Z,10.09
2023-03-29T10:42:49.000Z,10.10
2023-03-29T10:43:49.000Z,10.18
2023-03-29T10:44:49.000Z,10.19
2023-03-29T10:45:49.000Z,10.22
2023-03-29T10:46:49.000Z,10.25
2023-03-29T10:47:49.000Z,10.26
2023-03-29T10:48:49.000Z,10.32
2023-03-29T10:49:49.000Z,10.33
2023-03-29T10:50:49.000Z,10.26
2023-03-29T10:51:49.000Z,10.28
2023-03-29T10:52:49.000Z,10.18
2023-03-29T10:53:49.000Z,10.22
2023-03-29T10:54:49.000Z,10.22
2023-03-29T10:55:49.000Z,10.28
2023-03-29T10:56:49.000Z,10.26
2023-03-29T10:57:49.000Z,10.34
2023-03-29T10:58:49.000Z,10.33
2023-03-29T10:59:49.000Z,10.34
2023-03-29T11:00:49.000Z,10.33
2023-03-29T11:01:49.000Z,10.34
2023-03-29T11:02:49.000Z,10.33
2023-03-29T11:03:49.000Z,10.28
2023-03-29T11:04:49.000Z,10.32
2023-03-29T11:05:49.000Z,10.34
2023-03-29T11:06:49.000Z,10.34
2023-03-29T11:07:49.000Z,10.42
2023-03-29T11:08:49.000Z,10.43
2023-03-29T11:09:49.000Z,10.40
2023-03-29T11:10:49.000Z,10.40
2023-03-29T11:11:49.000Z,10.34
2023-03-29T11:12:49.000Z,10.34
2023-03-29T11:13:49.000Z,10.28
2023-03-29T11:14:49.000Z,10.40
2023-03-29T11:15:49.000Z,10.52
2023-03-29T11:16:49.000Z,10.60
2023-03-29T11:17:49.000Z,10.71
2023-03-29T11:18:49.000Z,10.83
2023-03-29T11:19:49.000Z,10.78
2023-03-29T11:20:49.000Z,10.71
2023-03-29T11:21:49.000Z,10.71
2023-03-29T11:22:49.000Z,10.71
2023-03-29T11:23:49.000Z,10.68
2023-03-29T11:24:49.000Z,10.71
2023-03-29T11:25:49.000Z,10.76
2023-03-29T11:26:49.000Z,10.77
2023-03-29T11:27:49.000Z,10.73
2023-03-29T11:28:49.000Z,10.74
2023-03-29T11:29:49.000Z,10.81
2023-03-29T11:30:49.000Z,10.94
2023-03-29T11:31:49.000Z,10.99
2023-03-29T11:32:49.000Z,11.11
2023-03-29T11:33:49.000Z,11.21
2023-03-29T11:34:49.000Z,11.31
2023-03-29T11:35:49.000Z,11.28
2023-03-29T11:36:49.000Z,11.32
2023-03-29T11:37:49.000Z,11.31
2023-03-29T11:38:49.000Z,11.27
2023-03-29T11:39:49.000Z,11.28
2023-03-29T11:40:49.000Z,11.25
2023-03-29T11:41:49.000Z,11.24
2023-03-29T11:42:49.000Z,11.20
2023-03-29T11:43:49.000Z,11.24
2023-03-29T11:44:49.000Z,11.31
2023-03-29T11:45:49.000Z,11.28
2023-03-29T11:46:49.000Z,11.19
2023-03-29T11:47:49.000Z,11.16
2023-03-29T11:48:49.000Z,11.24
2023-03-29T11:49:49.000Z,11.28
2023-03-29T11:50:49.000Z,11.29
2023-03-29T11:51:49.000Z,11.21
2023-03-29T11:52:49.000Z,11.24
2023-03-29T11:53:49.000Z,11.20
2023-03-29T11:54:49.000Z,11.27
2023-03-29T11:55:49.000Z,11.35
2023-03-29T11:56:49.000Z,11.44
2023-03-29T11:57:49.000Z,11.50
2023-03-29T11:58:49.000Z,11.43
2023-03-29T11:59:49.000Z,11.36
2023-03-29T12:00:49.000Z,11.32
2023-03-29T12:01:49.000Z,11.41
2023-03-29T12:02:49.000Z,11.47
2023-03-29T12:03:49.000Z,11.56
2023-03-29T12:04:49.000Z,11.52
2023-03-29T12:05:49.000Z,11.50
2023-03-29T12:06:49.000Z,11.39
2023-03-29T12:07:49.000Z,11.38
2023-03-29T12:08:49.000Z,11.43
2023-03-29T12:09:49.000Z,11.53
2023-03-29T12:10:49.000Z,11.56
2023-03-29T12:11:49.000Z,11.54
2023-03-29T12:12:49.000Z,11.53
2023-03-29T12:13:49.000Z,11.59
2023-03-29T12:14:49.000Z,11.67
2023-03-29T12:15:49.000Z,11.70
2023-03-29T12:16:48.000Z,11.74
2023-03-29T12:17:48.000Z,11.68
2023-03-29T12:18:48.000Z,11.68
2023-03-29T12:19:48.000Z,11.71
2023-03-29T12:20:48.000Z,11.80
2023-03-29T12:21:48.000Z,11.85
2023-03-29T12:22:48.000Z,11.93
2023-03-29T12:23:48.000Z,12.01
2023-03-29T12:24:48.000Z,12.04
2023-03-29T12:25:48.000Z,11.94
2023-03-29T12:26:48.000Z,11.96
2023-03-29T12:27:48.000Z,11.93
2023-03-29T12:28:48.000Z,11.94
2023-03-29T12:29:48.000Z,11.99
2023-03-29T12:30:48.000Z,12.04
2023-03-29T12:31:48.000Z,11.96
2023-03-29T12:32:48.000Z,11.99
2023-03-29T12:33:48.000Z,12.02
2023-03-29T12:34:48.000Z,12.04
2023-03-29T12:35:48.000Z,12.01
2023-03-29T12:36:48.000Z,11.99
2023-03-29T12:37:48.000Z,11.97
2023-03-29T12:38:48.000Z,12.01
2023-03-29T12:39:48.000Z,11.96
2023-03-29T12:40:48.000Z,11.99
2023-03-29T12:41:48.000Z,11.94
2023-03-29T12:42:48.000Z,11.83
2023-03-29T12:43:48.000Z,11.87
2023-03-29T12:44:48.000Z,11.94
2023-03-29T12:45:48.000Z,12.01
2023-03-29T12:46:48.000Z,12.05
2023-03-29T12:47:48.000Z,12.11
2023-03-29T12:48:48.000Z,12.12
2023-03-29T12:49:48.000Z,12.19
2023-03-29T12:50:48.000Z,12.13
2023-03-29T12:51:48.000Z,12.15
2023-03-29T12:52:48.000Z,12.26
2023-03-29T12:53:48.000Z,12.27
2023-03-29T12:54:48.000Z,12.29
2023-03-29T12:55:48.000Z,12.31
2023-03-29T12:56:47.000Z,12.30
2023-03-29T12:57:47.000Z,12.31
2023-03-29T12:58:47.000Z,12.31
2023-03-29T12:59:47.000Z,12.34
2023-03-29T13:00:47.000Z,12.42
2023-03-29T13:01:47.000Z,12.45
2023-03-29T13:02:47.000Z,12.52
2023-03-29T13:03:47.000Z,12.60
2023-03-29T13:04:47.000Z,12.69
2023-03-29T13:05:47.000Z,12.71
2023-03-29T13:06:47.000Z,12.70
2023-03-29T13:07:47.000Z,12.67
2023-03-29T13:08:47.000Z,12.67
2023-03-29T13:09:47.000Z,12.67
2023-03-29T13:10:47.000Z,12.71
2023-03-29T13:11:47.000Z,12.77
2023-03-29T13:12:47.000Z,12.78